Time,TemperatureF,DewpointF,PressureIn,WindDirection,WindDirectionDegrees,WindSpeedMPH,WindSpeedGustMPH,Humidity,HourlyPrecipIn,Conditions,Clouds,dailyrainin,SolarRadiationWatts/m^2,SoftwareType,DateUTC
2013-06-06 00:03:00,67.0,66.0,29.15,NNW,331,2.0,6.0,98,0.03,,,1.74,0.000000,,2013-06-06 04:03:00,
2013-06-06 00:10:00,67.0,66.0,29.13,NNE,31,3.0,5.0,98,0.00,,,1.74,0.000000,,2013-06-06 04:10:00,
2013-06-06 00:33:00,67.0,66.0,29.13,NNE,31,3.0,5.0,98,0.00,,,1.74,0.000000,,2013-06-06 04:33:00,
2013-06-06 00:42:00,67.0,66.0,29.13,NNE,31,3.0,5.0,98,0.00,,,1.74,0.000000,,2013-06-06 04:42:00,
2013-06-06 00:53:00,67.0,66.0,29.13,NNE,31,3.0,5.0,98,0.00,,,1.74,0.000000,,2013-06-06 04:53:00,
2013-06-06 01:02:00,67.0,66.0,29.13,NNE,31,3.0,5.0,98,0.00,,,1.74,0.000000,,2013-06-06 05:02:00,
2013-06-06 01:10:00,68.0,67.0,29.11,NNW,332,1.0,6.0,98,0.00,,,1.74,0.000000,,2013-06-06 05:10:00,
2013-06-06 01:32:00,68.0,67.0,29.11,NNW,332,1.0,6.0,98,0.00,,,1.74,0.000000,,2013-06-06 05:32:00,
2013-06-06 01:42:00,68.0,67.0,29.11,NNW,332,1.0,6.0,98,0.00,,,1.74,0.000000,,2013-06-06 05:42:00,
2013-06-06 01:52:00,68.0,67.0,29.11,NNW,332,1.0,6.0,98,0.00,,,1.74,0.000000,,2013-06-06 05:52:00,
2013-06-06 02:02:00,68.0,67.0,29.11,NNW,332,1.0,6.0,98,0.00,,,1.74,0.000000,,2013-06-06 06:02:00,
2013-06-06 02:10:00,66.0,65.0,29.10,WSW,252,1.0,6.0,98,0.31,,,2.05,0.000000,,2013-06-06 06:10:00,
2013-06-06 02:33:00,66.0,65.0,29.10,WSW,252,1.0,6.0,98,0.31,,,2.05,0.000000,,2013-06-06 06:33:00,
2013-06-06 02:42:00,66.0,65.0,29.10,WSW,252,1.0,6.0,98,0.31,,,2.05,0.000000,,2013-06-06 06:42:00,
2013-06-06 02:52:00,66.0,65.0,29.10,WSW,252,1.0,6.0,98,0.31,,,2.05,0.000000,,2013-06-06 06:52:00,
2013-06-06 03:02:00,66.0,65.0,29.10,WSW,252,1.0,6.0,98,0.31,,,2.05,0.000000,,2013-06-06 07:02:00,
2013-06-06 03:10:00,66.0,65.0,29.08,NNE,31,3.0,7.0,98,0.18,,,2.23,0.000000,,2013-06-06 07:10:00,
2013-06-06 03:33:00,66.0,65.0,29.08,NNE,31,3.0,7.0,98,0.18,,,2.23,0.000000,,2013-06-06 07:33:00,
2013-06-06 03:42:00,66.0,65.0,29.08,NNE,31,3.0,7.0,98,0.18,,,2.23,0.000000,,2013-06-06 07:42:00,
2013-06-06 03:52:00,66.0,65.0,29.08,NNE,31,3.0,7.0,98,0.18,,,2.23,0.000000,,2013-06-06 07:52:00,
2013-06-06 04:02:00,66.0,65.0,29.08,NNE,31,3.0,7.0,98,0.18,,,2.23,0.000000,,2013-06-06 08:02:00,
2013-06-06 04:10:00,66.0,65.0,29.06,West,275,1.0,9.0,98,0.00,,,2.23,0.000000,,2013-06-06 08:10:00,
2013-06-06 04:32:00,66.0,65.0,29.06,West,275,1.0,9.0,98,0.00,,,2.23,0.000000,,2013-06-06 08:32:00,
2013-06-06 04:42:00,66.0,65.0,29.06,West,275,1.0,9.0,98,0.00,,,2.23,0.000000,,2013-06-06 08:42:00,
2013-06-06 04:52:00,66.0,65.0,29.06,West,275,1.0,9.0,98,0.00,,,2.23,0.000000,,2013-06-06 08:52:00,
2013-06-06 05:02:00,66.0,65.0,29.06,West,275,1.0,9.0,98,0.00,,,2.23,0.000000,,2013-06-06 09:02:00,
2013-06-06 05:10:00,66.0,65.0,29.05,WNW,298,1.0,5.0,98,0.00,,,2.23,0.000000,,2013-06-06 09:10:00,
2013-06-06 05:33:00,66.0,65.0,29.05,WNW,298,1.0,5.0,98,0.00,,,2.23,0.000000,,2013-06-06 09:33:00,
2013-06-06 05:43:00,66.0,65.0,29.05,WNW,298,1.0,5.0,98,0.00,,,2.23,0.000000,,2013-06-06 09:43:00,
2013-06-06 05:53:00,66.0,65.0,29.05,WNW,298,1.0,5.0,98,0.00,,,2.23,0.000000,,2013-06-06 09:53:00,
2013-06-06 06:03:00,66.0,65.0,29.05,WNW,298,1.0,5.0,98,0.00,,,2.23,0.000000,,2013-06-06 10:03:00,
2013-06-06 06:10:00,66.0,65.0,29.05,NNW,332,1.0,4.0,98,0.00,,,2.23,0.000000,,2013-06-06 10:10:00,
2013-06-06 06:33:00,66.0,65.0,29.05,NNW,332,1.0,4.0,98,0.00,,,2.23,0.000000,,2013-06-06 10:33:00,
2013-06-06 06:42:00,66.0,65.0,29.05,NNW,332,1.0,4.0,98,0.00,,,2.23,0.000000,,2013-06-06 10:42:00,
2013-06-06 06:53:00,66.0,65.0,29.05,NNW,332,1.0,4.0,98,0.00,,,2.23,0.000000,,2013-06-06 10:53:00,
2013-06-06 07:02:00,66.0,65.0,29.05,NNW,332,1.0,4.0,98,0.00,,,2.23,0.000000,,2013-06-06 11:02:00,
2013-06-06 07:10:00,68.0,68.0,29.05,North,1,2.0,5.0,99,0.01,,,2.24,0.000000,,2013-06-06 11:10:00,
2013-06-06 07:32:00,68.0,68.0,29.05,North,1,2.0,5.0,99,0.01,,,2.24,0.000000,,2013-06-06 11:32:00,
2013-06-06 07:42:00,68.0,68.0,29.05,North,1,2.0,5.0,99,0.01,,,2.24,0.000000,,2013-06-06 11:42:00,
2013-06-06 07:52:00,68.0,68.0,29.05,North,1,2.0,5.0,99,0.01,,,2.24,0.000000,,2013-06-06 11:52:00,
2013-06-06 08:03:00,68.0,68.0,29.05,North,1,2.0,5.0,99,0.01,,,2.24,0.000000,,2013-06-06 12:03:00,
2013-06-06 08:10:00,68.0,68.0,29.04,North,358,2.0,6.0,99,0.05,,,2.29,11.000000,,2013-06-06 12:10:00,
2013-06-06 08:33:00,68.0,68.0,29.04,North,358,2.0,6.0,99,0.05,,,2.29,11.000000,,2013-06-06 12:33:00,
2013-06-06 08:43:00,68.0,68.0,29.04,North,358,2.0,6.0,99,0.05,,,2.29,11.000000,,2013-06-06 12:43:00,
2013-06-06 08:53:00,68.0,68.0,29.04,North,358,2.0,6.0,99,0.05,,,2.29,11.000000,,2013-06-06 12:53:00,
2013-06-06 09:03:00,68.0,68.0,29.04,North,358,2.0,6.0,99,0.05,,,2.29,11.000000,,2013-06-06 13:03:00,
2013-06-06 09:10:00,68.0,68.0,29.04,North,7,1.0,5.0,99,0.01,,,2.30,19.000000,,2013-06-06 13:10:00,
2013-06-06 09:33:00,68.0,68.0,29.04,North,7,1.0,5.0,99,0.01,,,2.30,19.000000,,2013-06-06 13:33:00,
2013-06-06 09:43:00,68.0,68.0,29.04,North,7,1.0,5.0,99,0.01,,,2.30,19.000000,,2013-06-06 13:43:00,
2013-06-06 09:53:00,68.0,68.0,29.04,North,7,1.0,5.0,99,0.01,,,2.30,19.000000,,2013-06-06 13:53:00,
2013-06-06 10:03:00,68.0,68.0,29.04,North,7,1.0,5.0,99,0.01,,,2.30,19.000000,,2013-06-06 14:03:00,
2013-06-06 10:10:00,69.0,68.0,29.04,WNW,294,1.0,5.0,96,0.01,,,2.31,107.000000,,2013-06-06 14:10:00,
2013-06-06 10:33:00,69.0,68.0,29.04,WNW,294,1.0,5.0,96,0.01,,,2.31,107.000000,,2013-06-06 14:33:00,
2013-06-06 10:43:00,69.0,68.0,29.04,WNW,294,1.0,5.0,96,0.01,,,2.31,107.000000,,2013-06-06 14:43:00,
2013-06-06 10:53:00,69.0,68.0,29.04,WNW,294,1.0,5.0,96,0.01,,,2.31,107.000000,,2013-06-06 14:53:00,
2013-06-06 11:03:00,69.0,68.0,29.04,WNW,294,1.0,5.0,96,0.01,,,2.31,107.000000,,2013-06-06 15:03:00,
2013-06-06 12:10:00,78.0,71.0,29.04,SSE,156,3.0,8.0,78,-99.99,,,2.31,295.000000,,2013-06-06 16:10:00,
2013-06-06 12:34:00,78.0,71.0,29.04,SSE,156,3.0,8.0,78,-99.99,,,2.31,295.000000,,2013-06-06 16:34:00,
2013-06-06 12:44:00,78.0,71.0,29.04,SSE,156,3.0,8.0,78,-99.99,,,2.31,295.000000,,2013-06-06 16:44:00,
2013-06-06 12:53:00,78.0,71.0,29.04,SSE,156,3.0,8.0,78,-99.99,,,2.31,295.000000,,2013-06-06 16:53:00,
2013-06-06 13:03:00,78.0,71.0,29.04,SSE,156,3.0,8.0,78,-99.99,,,2.31,295.000000,,2013-06-06 17:03:00,
2013-06-06 13:10:00,79.0,70.0,29.03,South,176,4.0,9.0,75,0.00,,,2.31,394.000000,,2013-06-06 17:10:00,
2013-06-06 13:33:00,79.0,70.0,29.03,South,176,4.0,9.0,75,0.00,,,2.31,394.000000,,2013-06-06 17:33:00,
2013-06-06 13:43:00,79.0,70.0,29.03,South,176,4.0,9.0,75,0.00,,,2.31,394.000000,,2013-06-06 17:43:00,
2013-06-06 13:53:00,79.0,70.0,29.03,South,176,4.0,9.0,75,0.00,,,2.31,394.000000,,2013-06-06 17:53:00,
2013-06-06 14:03:00,79.0,70.0,29.03,South,176,4.0,9.0,75,0.00,,,2.31,394.000000,,2013-06-06 18:03:00,
2013-06-06 14:10:00,80.0,70.0,29.00,ENE,68,3.0,9.0,71,0.00,,,2.31,441.000000,,2013-06-06 18:10:00,
2013-06-06 14:33:00,80.0,70.0,29.00,ENE,68,3.0,9.0,71,0.00,,,2.31,441.000000,,2013-06-06 18:33:00,
2013-06-06 14:43:00,80.0,70.0,29.00,ENE,68,3.0,9.0,71,0.00,,,2.31,441.000000,,2013-06-06 18:43:00,
2013-06-06 14:53:00,80.0,70.0,29.00,ENE,68,3.0,9.0,71,0.00,,,2.31,441.000000,,2013-06-06 18:53:00,
2013-06-06 15:03:00,80.0,70.0,29.00,ENE,68,3.0,9.0,71,0.00,,,2.31,441.000000,,2013-06-06 19:03:00,
2013-06-06 15:10:00,80.0,71.0,-100.00,South,191,3.0,10.0,73,0.00,,,2.31,497.000000,,2013-06-06 19:10:00,
2013-06-06 15:34:00,80.0,71.0,-100.00,South,191,3.0,10.0,73,0.00,,,2.31,497.000000,,2013-06-06 19:34:00,
2013-06-06 15:43:00,80.0,71.0,-100.00,South,191,3.0,10.0,73,0.00,,,2.31,497.000000,,2013-06-06 19:43:00,
2013-06-06 15:53:00,80.0,71.0,-100.00,South,191,3.0,10.0,73,0.00,,,2.31,497.000000,,2013-06-06 19:53:00,
2013-06-06 16:03:00,80.0,71.0,-100.00,South,191,3.0,10.0,73,0.00,,,2.31,497.000000,,2013-06-06 20:03:00,
2013-06-06 16:10:00,78.0,71.0,-100.00,ENE,61,4.0,11.0,78,0.00,,,2.31,433.000000,,2013-06-06 20:10:00,
2013-06-06 16:33:00,78.0,71.0,-100.00,ENE,61,4.0,11.0,78,0.00,,,2.31,433.000000,,2013-06-06 20:33:00,
2013-06-06 16:43:00,78.0,71.0,-100.00,ENE,61,4.0,11.0,78,0.00,,,2.31,433.000000,,2013-06-06 20:43:00,
2013-06-06 16:53:00,78.0,71.0,-100.00,ENE,61,4.0,11.0,78,0.00,,,2.31,433.000000,,2013-06-06 20:53:00,
2013-06-06 17:03:00,78.0,71.0,-100.00,ENE,61,4.0,11.0,78,0.00,,,2.31,433.000000,,2013-06-06 21:03:00,
2013-06-06 17:10:00,78.0,70.0,-100.00,South,182,3.0,11.0,76,0.00,,,2.31,291.000000,,2013-06-06 21:10:00,
2013-06-06 17:33:00,78.0,70.0,-100.00,South,182,3.0,11.0,76,0.00,,,2.31,291.000000,,2013-06-06 21:33:00,
2013-06-06 17:44:00,78.0,70.0,-100.00,South,182,3.0,11.0,76,0.00,,,2.31,291.000000,,2013-06-06 21:44:00,
2013-06-06 17:53:00,78.0,70.0,-100.00,South,182,3.0,11.0,76,0.00,,,2.31,291.000000,,2013-06-06 21:53:00,
2013-06-06 18:03:00,78.0,70.0,-100.00,South,182,3.0,11.0,76,0.00,,,2.31,291.000000,,2013-06-06 22:03:00,
2013-06-06 18:10:00,75.0,69.0,-100.00,South,185,3.0,14.0,82,0.00,,,2.31,272.000000,,2013-06-06 22:10:00,
2013-06-06 18:33:00,75.0,69.0,-100.00,South,185,3.0,14.0,82,0.00,,,2.31,272.000000,,2013-06-06 22:33:00,
2013-06-06 18:43:00,75.0,69.0,-100.00,South,185,3.0,14.0,82,0.00,,,2.31,272.000000,,2013-06-06 22:43:00,
2013-06-06 18:53:00,75.0,69.0,-100.00,South,185,3.0,14.0,82,0.00,,,2.31,272.000000,,2013-06-06 22:53:00,
2013-06-06 19:03:00,75.0,69.0,-100.00,South,185,3.0,14.0,82,0.00,,,2.31,272.000000,,2013-06-06 23:03:00,
2013-06-06 19:10:00,75.0,69.0,-100.00,South,177,4.0,12.0,83,0.00,,,2.31,263.000000,,2013-06-06 23:10:00,
2013-06-06 19:33:00,75.0,69.0,-100.00,South,177,4.0,12.0,83,0.00,,,2.31,263.000000,,2013-06-06 23:33:00,
2013-06-06 19:43:00,75.0,69.0,-100.00,South,177,4.0,12.0,83,0.00,,,2.31,263.000000,,2013-06-06 23:43:00,
2013-06-06 19:52:00,75.0,69.0,-100.00,South,177,4.0,12.0,83,0.00,,,2.31,263.000000,,2013-06-06 23:52:00,
2013-06-06 20:02:00,75.0,69.0,-100.00,South,177,4.0,12.0,83,0.00,,,2.31,263.000000,,2013-06-07 00:02:00,
2013-06-06 21:10:00,68.0,66.0,-100.00,SSE,154,3.0,15.0,94,-99.99,,,0.79,70.000000,,2013-06-07 01:10:00,
2013-06-06 21:33:00,68.0,66.0,-100.00,SSE,154,3.0,15.0,94,-99.99,,,0.79,70.000000,,2013-06-07 01:33:00,
2013-06-06 21:42:00,68.0,66.0,-100.00,SSE,154,3.0,15.0,94,-99.99,,,0.79,70.000000,,2013-06-07 01:42:00,
2013-06-06 21:53:00,68.0,66.0,-100.00,SSE,154,3.0,15.0,94,-99.99,,,0.79,70.000000,,2013-06-07 01:53:00,
2013-06-06 22:02:00,68.0,66.0,-100.00,SSE,154,3.0,15.0,94,-99.99,,,0.79,70.000000,,2013-06-07 02:02:00,
2013-06-06 22:10:00,69.0,67.0,-100.00,South,189,2.0,9.0,94,0.00,,,0.60,3.000000,,2013-06-07 02:10:00,
2013-06-06 22:32:00,69.0,67.0,-100.00,South,189,2.0,9.0,94,0.00,,,0.60,3.000000,,2013-06-07 02:32:00,
2013-06-06 22:42:00,69.0,67.0,-100.00,South,189,2.0,9.0,94,0.00,,,0.60,3.000000,,2013-06-07 02:42:00,
2013-06-06 22:52:00,69.0,67.0,-100.00,South,189,2.0,9.0,94,0.00,,,0.60,3.000000,,2013-06-07 02:52:00,
2013-06-06 23:02:00,69.0,67.0,-100.00,South,189,2.0,9.0,94,0.00,,,0.60,3.000000,,2013-06-07 03:02:00,
2013-06-06 23:10:00,67.0,66.0,-100.00,East,86,1.0,5.0,96,0.00,,,0.57,0.000000,,2013-06-07 03:10:00,
2013-06-06 23:33:00,67.0,66.0,-100.00,East,86,1.0,5.0,96,0.00,,,0.57,0.000000,,2013-06-07 03:33:00,
2013-06-06 23:44:00,67.0,66.0,-100.00,East,86,1.0,5.0,96,0.00,,,0.57,0.000000,,2013-06-07 03:44:00,
2013-06-06 23:53:00,67.0,66.0,-100.00,East,86,1.0,5.0,96,0.00,,,0.57,0.000000,,2013-06-07 03:53:00,